TimeCDT,TemperatureF,Dew PointF,Humidity,Sea Level PressureIn,VisibilityMPH,Wind Direction,Wind SpeedMPH,Gust SpeedMPH,PrecipitationIn,Events,Conditions,WindDirDegrees,DateUTC
12:53 AM,69.1,57.0,65,29.96,10.0,SSE,9.2,-,N/A,,Clear,160,2013-07-05 05:53:00
1:53 AM,68.0,57.0,68,29.95,10.0,South,9.2,-,N/A,,Partly Cloudy,170,2013-07-05 06:53:00
2:53 AM,68.0,57.0,68,29.95,10.0,SSE,9.2,-,N/A,,Scattered Clouds,160,2013-07-05 07:53:00
3:53 AM,66.0,57.0,73,29.96,10.0,South,9.2,-,N/A,,Mostly Cloudy,170,2013-07-05 08:53:00
4:53 AM,66.0,55.9,70,29.96,10.0,SSE,8.1,-,N/A,,Partly Cloudy,150,2013-07-05 09:53:00
5:53 AM,63.0,55.9,78,29.97,10.0,SSE,5.8,-,N/A,,Scattered Clouds,150,2013-07-05 10:53:00
6:53 AM,66.9,57.0,70,29.97,10.0,SSE,9.2,-,N/A,,Mostly Cloudy,160,2013-07-05 11:53:00
7:53 AM,70.0,59.0,68,29.99,10.0,South,8.1,-,N/A,,Scattered Clouds,170,2013-07-05 12:53:00
8:53 AM,73.0,59.0,61,29.99,10.0,South,11.5,-,N/A,,Partly Cloudy,190,2013-07-05 13:53:00
9:53 AM,77.0,61.0,58,29.98,10.0,South,9.2,-,N/A,,Scattered Clouds,180,2013-07-05 14:53:00
10:53 AM,80.1,61.0,52,29.97,10.0,South,9.2,-,N/A,,Scattered Clouds,190,2013-07-05 15:53:00
11:53 AM,82.9,62.1,49,29.97,10.0,South,9.2,-,N/A,,Mostly Cloudy,190,2013-07-05 16:53:00
12:53 PM,84.9,62.1,46,29.95,10.0,SSE,15.0,-,N/A,,Mostly Cloudy,160,2013-07-05 17:53:00
1:53 PM,87.1,61.0,41,29.94,10.0,South,10.4,-,N/A,,Mostly Cloudy,170,2013-07-05 18:53:00
2:53 PM,87.1,60.1,40,29.93,10.0,SSE,15.0,-,N/A,,Mostly Cloudy,160,2013-07-05 19:53:00
3:53 PM,87.1,60.1,40,29.92,10.0,South,12.7,-,N/A,,Scattered Clouds,180,2013-07-05 20:53:00
4:53 PM,87.1,59.0,39,29.90,10.0,South,12.7,-,N/A,,Mostly Cloudy,180,2013-07-05 21:53:00
5:53 PM,87.1,59.0,39,29.89,9.0,South,13.8,-,N/A,,Mostly Cloudy,170,2013-07-05 22:53:00
6:53 PM,84.0,59.0,43,29.88,10.0,SSE,12.7,-,N/A,,Mostly Cloudy,160,2013-07-05 23:53:00
7:53 PM,82.0,57.9,44,29.88,10.0,SSE,11.5,-,N/A,,Overcast,160,2013-07-06 00:53:00
8:53 PM,79.0,59.0,50,29.88,10.0,SE,10.4,-,N/A,,Overcast,140,2013-07-06 01:53:00
9:53 PM,77.0,59.0,54,29.90,10.0,SE,8.1,-,N/A,,Mostly Cloudy,140,2013-07-06 02:53:00
10:53 PM,75.9,59.0,56,29.91,10.0,SSE,9.2,-,N/A,,Scattered Clouds,150,2013-07-06 03:53:00
11:53 PM,77.0,57.9,52,29.92,10.0,SSE,12.7,-,N/A,,Clear,150,2013-07-06 04:53:00